createdAt,value
2018-08-30T00:01:17.657Z,8.03
2018-08-30T00:03:48.133Z,8.10
2018-08-30T00:06:18.716Z,9.33
2018-08-30T00:08:49.256Z,9.23
2018-08-30T00:11:19.953Z,10.10
2018-08-30T00:13:50.491Z,10.13
2018-08-30T00:16:21.052Z,10.57
2018-08-30T00:18:51.320Z,10.33
2018-08-30T00:21:21.776Z,10.97
2018-08-30T00:23:52.336Z,10.57
2018-08-30T00:26:22.836Z,11.13
2018-08-30T00:28:53.342Z,13.63
2018-08-30T00:31:23.702Z,13.27
2018-08-30T00:33:54.067Z,12.67
2018-08-30T00:36:24.396Z,12.97
2018-08-30T00:38:54.892Z,13.17
2018-08-30T00:41:25.498Z,14.93
2018-08-30T00:43:56.017Z,14.83
2018-08-30T00:46:26.255Z,16.20
2018-08-30T00:48:56.627Z,16.37
2018-08-30T00:51:27.044Z,20.20
2018-08-30T00:53:57.280Z,20.27
2018-08-30T00:56:27.678Z,21.60
2018-08-30T00:58:58.119Z,22.40
2018-08-30T01:01:29.052Z,22.77
2018-08-30T01:03:59.644Z,22.37
2018-08-30T01:09:06.088Z,21.87
2018-08-30T01:11:36.757Z,23.93
2018-08-30T01:14:07.200Z,24.10
2018-08-30T01:16:37.723Z,25.57
2018-08-30T01:19:08.164Z,26.73
2018-08-30T01:21:38.500Z,26.13
2018-08-30T01:24:08.912Z,31.43
2018-08-30T01:26:39.545Z,29.27
2018-08-30T01:29:10.068Z,29.47
2018-08-30T01:31:40.618Z,31.27
2018-08-30T01:34:13.170Z,30.63
2018-08-30T01:36:44.595Z,30.43
2018-08-30T01:39:15.201Z,31.20
2018-08-30T01:41:45.707Z,33.00
2018-08-30T01:44:16.043Z,32.97
2018-08-30T01:46:46.439Z,33.90
2018-08-30T01:49:16.849Z,32.77
2018-08-30T01:51:47.211Z,31.90
2018-08-30T01:54:17.438Z,34.47
2018-08-30T01:56:47.879Z,34.23
2018-08-30T01:59:18.383Z,33.80
2018-08-30T02:01:48.829Z,34.10
2018-08-30T02:04:19.405Z,33.30
2018-08-30T02:06:49.776Z,35.30
2018-08-30T02:09:20.195Z,31.50
2018-08-30T02:11:50.546Z,33.00
2018-08-30T02:14:20.951Z,32.47
2018-08-30T02:16:51.459Z,31.10
2018-08-30T02:19:21.840Z,32.40
2018-08-30T02:21:52.224Z,31.27
2018-08-30T02:24:22.702Z,31.50
2018-08-30T02:26:53.280Z,31.57
2018-08-30T02:29:24.216Z,30.80
2018-08-30T02:31:54.639Z,29.67
2018-08-30T02:34:25.104Z,28.97
2018-08-30T02:36:55.574Z,31.30
2018-08-30T02:39:25.909Z,31.80
2018-08-30T02:41:56.228Z,30.07
2018-08-30T02:44:26.675Z,30.30
2018-08-30T02:46:57.095Z,32.33
2018-08-30T02:49:27.693Z,31.00
2018-08-30T02:51:58.194Z,35.37
2018-08-30T02:54:28.837Z,34.80
2018-08-30T02:56:59.199Z,37.53
2018-08-30T02:59:29.618Z,36.30
2018-08-30T03:02:00.198Z,38.80
2018-08-30T03:04:30.794Z,40.67
2018-08-30T03:07:01.399Z,40.40
2018-08-30T03:09:31.803Z,41.17
2018-08-30T03:12:02.128Z,41.10
2018-08-30T03:14:32.637Z,40.40
2018-08-30T03:17:03.932Z,39.30
2018-08-30T03:19:34.344Z,39.90
2018-08-30T03:22:04.796Z,40.33
2018-08-30T03:24:35.256Z,36.60
2018-08-30T03:27:05.868Z,33.57
2018-08-30T03:29:36.267Z,33.67
2018-08-30T03:32:06.636Z,32.43
2018-08-30T03:34:37.020Z,34.17
2018-08-30T03:37:07.495Z,33.53
2018-08-30T03:39:37.875Z,34.00
2018-08-30T03:42:08.332Z,33.03
2018-08-30T03:44:38.642Z,33.07
2018-08-30T03:47:09.093Z,31.33
2018-08-30T03:49:39.912Z,33.47
2018-08-30T03:52:10.882Z,34.10
2018-08-30T03:54:41.159Z,31.57
2018-08-30T03:57:11.636Z,32.13
2018-08-30T03:59:42.139Z,31.43
2018-08-30T04:02:12.611Z,30.13
2018-08-30T04:04:43.009Z,28.03
2018-08-30T04:07:13.392Z,25.30
2018-08-30T04:09:43.868Z,27.73
2018-08-30T04:12:14.320Z,27.90
2018-08-30T04:14:44.955Z,25.87
2018-08-30T04:17:15.400Z,24.63
2018-08-30T04:19:45.660Z,24.80
2018-08-30T04:22:16.108Z,24.10
2018-08-30T04:24:46.996Z,22.90
2018-08-30T04:27:17.475Z,22.47
2018-08-30T04:29:47.916Z,21.73
2018-08-30T04:32:18.418Z,20.03
2018-08-30T04:34:48.897Z,19.63
2018-08-30T04:37:19.264Z,21.83
2018-08-30T04:39:49.531Z,23.50
2018-08-30T04:42:20.055Z,22.30
2018-08-30T04:44:50.265Z,22.10
2018-08-30T04:47:20.560Z,23.77
2018-08-30T04:49:50.843Z,22.37
2018-08-30T04:52:21.223Z,22.77
2018-08-30T04:54:51.649Z,22.90
2018-08-30T04:57:21.948Z,22.50
2018-08-30T04:59:52.365Z,22.80
2018-08-30T05:02:22.827Z,24.30
2018-08-30T05:04:53.376Z,23.00
2018-08-30T05:07:24.394Z,23.27
2018-08-30T05:09:54.892Z,21.00
2018-08-30T05:12:25.063Z,21.83
2018-08-30T05:14:55.452Z,22.03
2018-08-30T05:17:25.813Z,22.27
2018-08-30T05:19:56.288Z,22.77
2018-08-30T05:22:26.769Z,20.77
2018-08-30T05:24:57.227Z,20.00
2018-08-30T05:27:27.492Z,20.67
2018-08-30T05:29:57.997Z,19.93
2018-08-30T05:32:28.553Z,19.03
2018-08-30T05:34:59.040Z,20.47
2018-08-30T05:37:29.491Z,21.50
2018-08-30T05:40:00.334Z,19.90
2018-08-30T05:42:30.963Z,21.50
2018-08-30T05:45:01.325Z,22.03
2018-08-30T05:47:31.895Z,21.40
2018-08-30T05:50:02.312Z,21.13
2018-08-30T05:52:32.900Z,19.90
2018-08-30T05:55:03.721Z,21.10
2018-08-30T05:57:34.347Z,18.90
2018-08-30T06:00:04.830Z,20.27
2018-08-30T06:02:35.108Z,19.30
2018-08-30T06:05:05.540Z,19.30
2018-08-30T06:07:35.843Z,18.63
2018-08-30T06:10:06.447Z,18.67
2018-08-30T06:12:37.124Z,18.73
2018-08-30T06:15:07.820Z,20.10
2018-08-30T06:17:38.349Z,23.10
2018-08-30T06:20:08.941Z,25.70
2018-08-30T06:22:39.312Z,24.07
2018-08-30T06:25:09.769Z,25.20
2018-08-30T06:27:40.241Z,24.50
2018-08-30T06:30:10.877Z,25.20
2018-08-30T06:32:41.280Z,25.27
2018-08-30T06:35:11.531Z,22.60
2018-08-30T06:37:42.168Z,21.23
2018-08-30T06:40:12.655Z,19.70
2018-08-30T06:42:43.131Z,20.10
2018-08-30T06:45:13.680Z,20.20
2018-08-30T06:47:44.184Z,20.83
2018-08-30T06:50:14.659Z,21.37
2018-08-30T06:52:45.026Z,22.50
2018-08-30T06:55:15.491Z,20.77
2018-08-30T06:57:45.788Z,22.10
2018-08-30T07:00:16.277Z,19.20
2018-08-30T07:02:46.859Z,19.70
2018-08-30T07:05:17.595Z,20.13
2018-08-30T07:07:48.056Z,19.63
2018-08-30T07:10:18.585Z,15.87
2018-08-30T07:12:48.906Z,16.37
2018-08-30T07:15:19.495Z,15.50
2018-08-30T07:17:49.992Z,15.00
2018-08-30T07:20:20.487Z,14.90
2018-08-30T07:22:50.974Z,13.30
2018-08-30T07:25:21.447Z,14.93
2018-08-30T07:27:51.798Z,17.60
2018-08-30T07:30:22.213Z,18.70
2018-08-30T07:32:52.767Z,19.73
2018-08-30T07:35:23.279Z,19.60
2018-08-30T07:37:53.675Z,20.80
2018-08-30T07:40:23.999Z,20.40
2018-08-30T07:42:54.382Z,21.03
2018-08-30T07:45:24.692Z,21.40
2018-08-30T07:47:55.044Z,20.93
2018-08-30T07:50:25.427Z,21.63
2018-08-30T07:52:56.475Z,21.50
2018-08-30T07:55:27.440Z,21.63
2018-08-30T07:57:57.820Z,21.73
2018-08-30T08:00:28.311Z,21.50
2018-08-30T08:02:58.630Z,20.80
2018-08-30T08:05:29.072Z,23.00
2018-08-30T08:07:59.312Z,21.20
2018-08-30T08:10:29.808Z,21.67
2018-08-30T08:13:00.185Z,22.90
2018-08-30T08:15:30.608Z,20.50
2018-08-30T08:18:01.040Z,22.00
2018-08-30T08:20:31.657Z,20.33
2018-08-30T08:23:02.109Z,22.17
2018-08-30T08:25:32.509Z,22.40
2018-08-30T08:28:02.977Z,21.20
2018-08-30T08:30:33.572Z,23.27
2018-08-30T08:33:03.831Z,23.17
2018-08-30T08:35:34.308Z,24.37
2018-08-30T08:38:04.768Z,23.67
2018-08-30T08:40:35.192Z,23.53
2018-08-30T08:43:06.835Z,22.43
2018-08-30T08:45:37.308Z,23.20
2018-08-30T08:48:07.844Z,21.50
2018-08-30T08:50:38.452Z,21.23
2018-08-30T08:53:09.108Z,22.53
2018-08-30T08:55:39.455Z,22.27
2018-08-30T08:58:09.808Z,21.60
2018-08-30T09:00:40.312Z,21.10
2018-08-30T09:03:10.895Z,21.63
2018-08-30T09:05:41.369Z,22.77
2018-08-30T09:08:11.878Z,21.77
2018-08-30T09:10:42.435Z,21.13
2018-08-30T09:13:12.998Z,22.00
2018-08-30T09:15:43.293Z,23.00
2018-08-30T09:18:13.795Z,22.80
2018-08-30T09:20:44.237Z,21.70
2018-08-30T09:23:14.728Z,22.00
2018-08-30T09:25:45.148Z,21.03
2018-08-30T09:28:15.500Z,20.17
2018-08-30T09:30:45.873Z,21.03
2018-08-30T09:33:16.180Z,21.30
2018-08-30T09:35:46.741Z,20.63
2018-08-30T09:38:17.386Z,19.90
2018-08-30T09:40:47.647Z,19.50
2018-08-30T09:43:18.053Z,19.70
2018-08-30T09:45:48.515Z,20.90
2018-08-30T09:48:19.092Z,20.40
2018-08-30T09:50:49.387Z,19.27
2018-08-30T09:53:19.999Z,19.90
2018-08-30T09:55:50.414Z,20.57
2018-08-30T09:58:20.895Z,17.80
2018-08-30T10:00:56.379Z,19.27
2018-08-30T10:03:26.771Z,19.70
2018-08-30T10:05:57.343Z,17.87
2018-08-30T10:08:28.345Z,17.80
2018-08-30T10:10:58.999Z,17.60
2018-08-30T10:13:29.521Z,16.80
2018-08-30T10:15:59.836Z,14.90
2018-08-30T10:18:30.180Z,15.13
2018-08-30T10:21:00.419Z,15.23
2018-08-30T10:23:30.809Z,15.13
2018-08-30T10:26:01.377Z,14.27
2018-08-30T10:28:31.884Z,15.07
2018-08-30T10:31:02.132Z,14.30
2018-08-30T10:33:32.415Z,15.00
2018-08-30T10:36:02.925Z,15.07
2018-08-30T10:38:33.383Z,13.77
2018-08-30T10:41:03.873Z,12.70
2018-08-30T10:43:34.289Z,12.80
2018-08-30T10:46:04.524Z,13.00
2018-08-30T10:48:34.803Z,12.87
2018-08-30T10:51:05.401Z,13.07
2018-08-30T10:53:36.080Z,12.23
2018-08-30T10:56:06.745Z,13.10
2018-08-30T10:58:37.364Z,13.70
2018-08-30T11:01:08.719Z,13.10
2018-08-30T11:03:40.047Z,13.37
2018-08-30T11:06:10.172Z,12.20
2018-08-30T11:08:40.744Z,12.47
2018-08-30T11:11:11.268Z,12.90
2018-08-30T11:13:42.643Z,12.23
2018-08-30T11:16:13.045Z,13.37
2018-08-30T11:18:43.688Z,13.80
2018-08-30T11:21:14.255Z,14.03
2018-08-30T11:23:44.648Z,14.10
2018-08-30T11:26:15.068Z,13.67
2018-08-30T11:28:45.535Z,13.63
2018-08-30T11:31:15.840Z,14.20
2018-08-30T11:33:46.199Z,15.17
2018-08-30T11:36:16.595Z,14.87
2018-08-30T11:38:47.121Z,15.50
2018-08-30T11:41:17.503Z,15.47
2018-08-30T11:43:48.083Z,15.40
2018-08-30T11:46:18.532Z,15.83
2018-08-30T11:48:48.854Z,15.47
2018-08-30T11:51:19.269Z,16.27
2018-08-30T11:53:50.390Z,15.10
2018-08-30T11:56:20.849Z,15.70
2018-08-30T11:58:51.301Z,14.90
2018-08-30T12:01:21.725Z,15.50
2018-08-30T12:03:52.400Z,12.27
2018-08-30T12:06:22.940Z,9.37
2018-08-30T12:08:53.487Z,8.57
2018-08-30T12:11:23.798Z,8.83
2018-08-30T12:13:54.227Z,9.60
2018-08-30T12:16:24.631Z,9.13
2018-08-30T12:18:55.337Z,8.83
2018-08-30T12:21:25.925Z,9.47
2018-08-30T12:23:56.361Z,9.43
2018-08-30T12:26:27.076Z,10.20
2018-08-30T12:28:57.599Z,10.40
2018-08-30T12:31:28.151Z,10.40
2018-08-30T12:33:58.503Z,10.87
2018-08-30T12:36:28.955Z,11.10
2018-08-30T12:38:59.425Z,11.67
2018-08-30T12:41:29.634Z,12.00
2018-08-30T12:44:01.231Z,10.60
2018-08-30T12:46:31.586Z,11.60
2018-08-30T12:49:02.084Z,10.37
2018-08-30T12:51:32.715Z,11.17
2018-08-30T12:54:03.410Z,11.70
2018-08-30T12:56:33.677Z,11.20
2018-08-30T12:59:09.233Z,11.83
2018-08-30T13:01:40.010Z,11.50
2018-08-30T13:04:10.568Z,10.27
2018-08-30T13:06:50.033Z,9.73
2018-08-30T13:09:20.402Z,8.80
2018-08-30T13:11:51.001Z,8.93
2018-08-30T13:14:21.297Z,8.07
2018-08-30T13:16:51.786Z,7.73
2018-08-30T13:19:22.747Z,7.90
2018-08-30T13:21:53.204Z,7.20
2018-08-30T13:24:23.710Z,7.43
2018-08-30T13:26:54.344Z,7.30
2018-08-30T13:29:24.793Z,7.03
2018-08-30T13:31:55.395Z,7.37
2018-08-30T13:34:26.028Z,6.50
2018-08-30T13:36:56.559Z,7.20
2018-08-30T13:39:26.953Z,8.27
2018-08-30T13:41:57.459Z,7.73
2018-08-30T13:44:27.890Z,9.63
2018-08-30T13:46:58.143Z,8.50
2018-08-30T13:49:28.545Z,9.80
2018-08-30T13:51:59.357Z,8.13
2018-08-30T13:54:29.747Z,8.83
2018-08-30T13:57:00.121Z,8.53
2018-08-30T13:59:30.827Z,7.10
2018-08-30T14:02:00.912Z,6.70
2018-08-30T14:04:31.282Z,6.43
2018-08-30T14:07:02.517Z,5.33
2018-08-30T14:09:32.684Z,6.07
2018-08-30T14:12:03.598Z,5.83
2018-08-30T14:14:33.807Z,5.23
2018-08-30T14:17:03.946Z,5.23
2018-08-30T14:19:34.333Z,6.00
2018-08-30T14:22:04.793Z,5.97
2018-08-30T14:24:35.373Z,5.50
2018-08-30T14:27:06.101Z,5.97
2018-08-30T14:29:37.088Z,6.10
2018-08-30T14:32:07.919Z,7.20
2018-08-30T14:34:38.263Z,7.17
2018-08-30T14:37:08.619Z,7.77
2018-08-30T14:39:39.019Z,7.40
2018-08-30T14:42:09.587Z,6.97
2018-08-30T14:44:39.987Z,6.30
2018-08-30T14:47:10.620Z,7.00
2018-08-30T14:49:41.529Z,6.37
2018-08-30T14:52:12.210Z,6.43
2018-08-30T14:54:42.701Z,6.50
2018-08-30T14:57:13.177Z,7.13
2018-08-30T14:59:43.692Z,6.07
2018-08-30T15:02:13.820Z,5.97
2018-08-30T15:04:45.251Z,5.80
2018-08-30T15:07:15.844Z,5.63
2018-08-30T15:09:47.706Z,5.20
2018-08-30T15:12:18.127Z,3.93
2018-08-30T15:14:48.801Z,3.33
2018-08-30T15:17:19.961Z,3.00
2018-08-30T15:19:50.397Z,3.10
2018-08-30T15:22:21.064Z,3.03
2018-08-30T15:24:51.625Z,3.83
2018-08-30T15:27:22.213Z,2.80
2018-08-30T15:29:52.612Z,2.70
2018-08-30T15:32:23.072Z,2.63
2018-08-30T15:34:53.408Z,3.57
2018-08-30T15:37:23.796Z,3.00
2018-08-30T15:39:54.288Z,3.37
2018-08-30T15:42:24.744Z,2.93
2018-08-30T15:44:55.262Z,3.67
2018-08-30T15:47:25.870Z,3.30
2018-08-30T15:49:56.390Z,3.80
2018-08-30T15:52:26.956Z,3.50
2018-08-30T15:54:57.463Z,3.23
2018-08-30T15:57:28.232Z,3.67
2018-08-30T15:59:58.703Z,3.30
2018-08-30T16:02:29.082Z,3.73
2018-08-30T16:04:59.529Z,3.97
2018-08-30T16:07:30.038Z,3.90
2018-08-30T16:10:00.547Z,3.73
2018-08-30T16:12:31.096Z,3.50
2018-08-30T16:15:01.616Z,2.90
2018-08-30T16:17:34.954Z,3.77
2018-08-30T16:20:05.643Z,3.43
2018-08-30T16:23:41.667Z,3.30
2018-08-30T16:26:12.253Z,3.60
2018-08-30T16:28:43.453Z,3.30
2018-08-30T16:31:13.993Z,3.43
2018-08-30T16:33:44.210Z,3.03
2018-08-30T16:36:14.707Z,3.70
2018-08-30T16:38:45.448Z,3.90
2018-08-30T16:41:15.848Z,4.27
2018-08-30T16:43:46.392Z,3.30
2018-08-30T16:46:16.888Z,3.37
2018-08-30T16:48:47.479Z,3.40
2018-08-30T16:51:17.957Z,2.73
2018-08-30T16:53:48.652Z,2.90
2018-08-30T16:56:19.230Z,3.73
2018-08-30T16:58:49.634Z,2.80
2018-08-30T17:01:19.997Z,3.53
2018-08-30T17:03:50.552Z,4.00
2018-08-30T17:06:21.159Z,2.50
2018-08-30T17:08:51.809Z,2.80
2018-08-30T17:11:22.351Z,2.60
2018-08-30T17:13:52.939Z,3.00
2018-08-30T17:16:23.663Z,2.80
2018-08-30T17:18:58.477Z,3.20
2018-08-30T17:21:29.074Z,2.80
2018-08-30T17:23:59.593Z,3.17
2018-08-30T17:26:30.127Z,2.97
2018-08-30T17:29:01.224Z,2.67
2018-08-30T17:31:31.784Z,3.37
2018-08-30T17:34:02.375Z,2.77
2018-08-30T17:36:33.020Z,2.27
2018-08-30T17:39:03.660Z,2.70
2018-08-30T17:41:34.336Z,2.73
2018-08-30T17:44:04.842Z,2.73
2018-08-30T17:46:35.463Z,2.37
2018-08-30T17:49:06.016Z,2.70
2018-08-30T17:51:36.684Z,3.17
2018-08-30T17:54:07.448Z,2.63
2018-08-30T17:56:38.077Z,2.57
2018-08-30T17:59:08.941Z,2.90
2018-08-30T18:01:39.662Z,2.00
2018-08-30T18:04:10.407Z,3.07
2018-08-30T18:06:41.055Z,2.30
2018-08-30T18:09:11.842Z,3.03
2018-08-30T18:11:42.391Z,2.00
2018-08-30T18:14:13.143Z,2.87
2018-08-30T18:16:43.877Z,2.10
2018-08-30T18:19:14.511Z,2.33
2018-08-30T18:21:45.146Z,2.20
2018-08-30T18:24:15.918Z,2.30
2018-08-30T18:26:46.708Z,2.60
2018-08-30T18:29:17.428Z,2.30
2018-08-30T18:31:48.008Z,2.33
2018-08-30T18:34:18.663Z,2.37
2018-08-30T18:36:49.356Z,2.00
2018-08-30T18:39:20.136Z,2.40
2018-08-30T18:41:51.077Z,2.47
2018-08-30T18:44:22.136Z,2.63
2018-08-30T18:46:53.162Z,1.67
2018-08-30T18:49:24.518Z,2.70
2018-08-30T18:51:55.490Z,2.30
2018-08-30T18:54:26.580Z,2.57
2018-08-30T18:56:57.649Z,2.43
2018-08-30T18:59:28.861Z,1.93
2018-08-30T19:02:00.181Z,2.20
2018-08-30T19:04:31.332Z,2.33
2018-08-30T19:07:02.744Z,1.70
2018-08-30T19:09:33.974Z,1.97
2018-08-30T19:12:05.039Z,1.90
2018-08-30T19:14:36.119Z,2.80
2018-08-30T19:17:13.257Z,1.50
2018-08-30T19:19:44.105Z,1.80
2018-08-30T19:22:15.394Z,2.07
2018-08-30T19:24:53.389Z,1.90
2018-08-30T19:27:24.919Z,2.07
2018-08-30T19:30:00.933Z,2.20
2018-08-30T19:32:32.250Z,2.50
2018-08-30T19:35:08.024Z,1.80
2018-08-30T19:37:39.181Z,1.67
2018-08-30T19:40:13.954Z,1.90
2018-08-30T19:42:44.656Z,1.57
2018-08-30T19:45:15.291Z,2.13
2018-08-30T19:47:45.872Z,1.90
2018-08-30T19:50:16.496Z,1.70
2018-08-30T19:52:47.037Z,2.37
2018-08-30T19:55:17.699Z,1.87
2018-08-30T19:57:48.379Z,2.20
2018-08-30T20:00:18.965Z,2.33
2018-08-30T20:02:49.425Z,1.83
2018-08-30T20:05:20.212Z,1.90
2018-08-30T20:07:50.699Z,2.40
2018-08-30T20:10:21.455Z,2.73
2018-08-30T20:12:51.769Z,2.40
2018-08-30T20:15:22.456Z,2.50
2018-08-30T20:17:53.913Z,1.90
2018-08-30T20:20:24.532Z,2.17
2018-08-30T20:22:55.032Z,1.80
2018-08-30T20:25:25.709Z,1.90
2018-08-30T20:27:56.229Z,1.90
2018-08-30T20:30:26.867Z,1.90
2018-08-30T20:32:57.513Z,1.83
2018-08-30T20:35:28.122Z,1.93
2018-08-30T20:37:58.684Z,1.67
2018-08-30T20:40:29.459Z,1.67
2018-08-30T20:43:00.288Z,1.67
2018-08-30T20:45:30.761Z,1.77
2018-08-30T20:48:01.204Z,1.63
2018-08-30T20:50:32.329Z,2.10
2018-08-30T20:53:02.752Z,2.23
2018-08-30T20:55:33.100Z,1.87
2018-08-30T20:58:03.592Z,1.40
2018-08-30T21:00:34.095Z,1.97
2018-08-30T21:03:04.769Z,1.90
2018-08-30T21:05:35.285Z,1.80
2018-08-30T21:08:05.744Z,1.93
2018-08-30T21:10:36.296Z,1.80
2018-08-30T21:13:06.822Z,1.60
2018-08-30T21:15:37.307Z,2.13
2018-08-30T21:18:07.805Z,1.90
2018-08-30T21:20:39.010Z,2.17
2018-08-30T21:23:09.473Z,2.00
2018-08-30T21:25:40.052Z,2.10
2018-08-30T21:28:10.523Z,1.50
2018-08-30T21:30:41.035Z,2.03
2018-08-30T21:33:11.363Z,2.20
2018-08-30T21:35:41.832Z,2.20
2018-08-30T21:38:12.221Z,1.77
2018-08-30T21:40:42.626Z,1.80
2018-08-30T21:43:13.292Z,2.00
2018-08-30T21:45:43.664Z,1.80
2018-08-30T21:48:15.084Z,1.83
2018-08-30T21:50:45.501Z,2.30
2018-08-30T21:53:15.984Z,2.27
2018-08-30T21:55:46.862Z,1.93
2018-08-30T21:58:17.256Z,2.30
2018-08-30T22:00:48.062Z,1.73
2018-08-30T22:03:18.503Z,2.03
2018-08-30T22:05:48.817Z,1.70
2018-08-30T22:08:19.160Z,2.17
2018-08-30T22:10:49.564Z,2.17
2018-08-30T22:13:20.147Z,2.03
2018-08-30T22:15:50.600Z,2.00
2018-08-30T22:18:20.794Z,1.97
2018-08-30T22:20:51.296Z,1.83
2018-08-30T22:23:21.825Z,2.07
2018-08-30T22:25:52.524Z,2.20
2018-08-30T22:28:22.906Z,1.70
2018-08-30T22:30:53.363Z,1.80
2018-08-30T22:33:23.815Z,1.80
2018-08-30T22:35:54.320Z,2.17
2018-08-30T22:38:24.619Z,1.60
2018-08-30T22:40:55.739Z,1.80
2018-08-30T22:43:28.632Z,2.03
2018-08-30T22:45:59.139Z,1.80
2018-08-30T22:48:29.640Z,2.00
2018-08-30T22:50:59.872Z,2.53
2018-08-30T22:53:30.168Z,2.13
2018-08-30T22:56:00.643Z,1.50
2018-08-30T22:58:31.058Z,1.93
2018-08-30T23:01:01.278Z,2.10
2018-08-30T23:03:31.578Z,1.40
2018-08-30T23:06:01.890Z,2.50
2018-08-30T23:08:32.379Z,2.20
2018-08-30T23:11:02.879Z,1.90
2018-08-30T23:13:33.215Z,2.43
2018-08-30T23:16:03.653Z,2.10
2018-08-30T23:18:34.092Z,3.00
2018-08-30T23:21:05.308Z,2.07
2018-08-30T23:23:35.727Z,1.50
2018-08-30T23:26:06.201Z,2.20
2018-08-30T23:28:36.408Z,2.50
2018-08-30T23:31:07.040Z,2.20
2018-08-30T23:33:37.567Z,1.80
2018-08-30T23:36:08.253Z,1.40
2018-08-30T23:38:38.636Z,2.10
2018-08-30T23:41:09.212Z,1.73
2018-08-30T23:43:39.711Z,1.57
2018-08-30T23:46:10.177Z,2.20
2018-08-30T23:48:40.460Z,1.67
2018-08-30T23:51:10.951Z,1.50
2018-08-30T23:53:41.350Z,2.07
2018-08-30T23:56:11.783Z,2.20
2018-08-30T23:58:59.102Z,1.70
